Airfield :
LOGIN :

Register | Disclaimer

   EN    FR    IT 

 










Legend :    VFR   Marginal VFR   IFR   Intensive IFR   Very Intensive IFR
Visi :
Ceiling :
>= 8 km
>= 3000ft
5 to 8 km
1000 to 3000 ft
1500m to 5 km
500 to 1000 ft
800 to 1500m
200 to 500 ft
< 800m
< 200 ft
Symbols :   Thunderstorms  Fog  Heavy snow  Heavy precipitations  Wind > 20 kt
SIGMETs :     Misc.  Thunderstorms  Icing  Turbulence  Mountain Waves  Volcanic Ashes






- Airport Elevation : 220 ft
- IATA code : CWL


EGFF - Cardiff Rhoose

CURRENT METAR :
  • 080250Z AUTO 26022G34KT 9999 FEW008 BKN012 BKN041 11/10 Q1000

EXPIRED METARs :
  • 080220Z AUTO 25022G34KT 9999 -RA BKN003 OVC008 12/11 Q1000 RERA REDZ
  • 080150Z AUTO 25017KT 9999 -RA BKN009 OVC015 12/11 Q1000
  • 080120Z AUTO 24018KT 9999 -RA BKN016/// OVC023/// //////TCU 12/11 Q1000
  • 080050Z AUTO 24017KT 9999 -RA BKN020/// OVC025/// //////TCU 11/10 Q1001 RERA
  • 080020Z AUTO 23014KT 3200 +RA BKN019/// OVC024/// //////CB 11/10 Q1002

TAF AMD TAF EGFF
Valid from the 08 at 02:00 until the 09 at 00:00 UTC


080221Z 0802/0824 21018KT 9999 BKN004
BECMG 0802/0804 27022G36KT FEW012 SCT025
TEMPO 0802/0804 6000 RA
PROB30
TEMPO 0802/0804 3000 +RA BR
TEMPO 0806/0821 6000 SHRA
PROB30
TEMPO 0812/0821 4000 +SHRA BKN012 BKN020CB
TEMPO 0821/0824 4000 SHRA BKN012
PROB30
TEMPO 0821/0824 27028G46KT +SHRA
ATIS : +44 1446 729 319



MET'MAP, your aeronautical weather chart ! - Copyright ORBIFLY December 2007 - Disclaimer

ORBIFLY MET'MAP TEAM :

Programming & Development : Alexandra Zaïnal
Concept & original design : Baudouin d'Aumeries
Assistance for programming : Marc-Olivier Méhu
Technical & hardware support : Manuel Goepfert

Contact : metmap@orbifly.com




SOURCES & CREDITS :

   NOAA